Time;durP1;ratioP1;P1;durP2;ratioP2;P2;SDS_P1;SDS_P2;PMS_P1;PMS_P2;Temp;Humidity;BMP_temperature;BMP_pressure;BME280_temperature;BME280_humidity;BME280_pressure;Samples;Min_cycle;Max_cycle;Signal;HPM_P1;HPM_P2
2022/10/26 04:00:58;;;;;;;1999.90;999.90;;;11.50;99.90;;;;;;5721911;23;20062;-74
2022/10/26 04:03:24;;;;;;;1999.90;999.90;;;11.50;99.90;;;;;;4992853;28;20440;-74
2022/10/26 04:05:49;;;;;;;1999.90;999.90;;;11.50;99.90;;;;;;4992434;28;20033;-75
2022/10/26 04:08:15;;;;;;;1999.90;999.90;;;11.40;99.90;;;;;;4994273;28;20042;-75
2022/10/26 04:10:41;;;;;;;1999.90;999.90;;;11.40;99.90;;;;;;4992748;28;20039;-74
2022/10/26 04:13:09;;;;;;;1999.90;999.90;;;11.40;99.90;;;;;;4994181;28;20027;-75
2022/10/26 04:15:34;;;;;;;1999.90;999.90;;;11.40;99.90;;;;;;4994398;28;20039;-75
2022/10/26 04:18:01;;;;;;;1999.90;999.90;;;11.40;99.90;;;;;;4994007;28;20496;-75
2022/10/26 04:20:28;;;;;;;1999.90;999.90;;;11.40;99.90;;;;;;4993953;28;20515;-75
2022/10/26 04:23:01;;;;;;;1999.90;999.90;;;11.30;99.90;;;;;;4996177;28;20035;-75
2022/10/26 04:25:28;;;;;;;1999.90;999.90;;;11.30;99.90;;;;;;4995589;28;20027;-75
2022/10/26 04:27:54;;;;;;;1999.90;999.90;;;11.30;99.90;;;;;;4995872;28;20035;-75
2022/10/26 04:30:19;;;;;;;1999.90;999.90;;;11.30;99.90;;;;;;4997280;28;20365;-75
2022/10/26 04:32:45;;;;;;;1999.90;999.90;;;11.20;99.90;;;;;;4995838;28;20118;-75
2022/10/26 04:35:10;;;;;;;1999.90;999.90;;;11.30;99.90;;;;;;4996966;28;20117;-75
2022/10/26 04:37:36;;;;;;;1999.90;999.90;;;11.30;99.90;;;;;;4997236;28;20548;-75
2022/10/26 04:40:02;;;;;;;1999.90;999.90;;;11.30;99.90;;;;;;4996690;28;20070;-75
2022/10/26 04:42:30;;;;;;;1999.90;999.90;;;11.30;99.90;;;;;;4996749;28;20042;-75
2022/10/26 04:44:55;;;;;;;1999.90;999.90;;;11.30;99.90;;;;;;4996908;28;20038;-75
2022/10/26 04:47:21;;;;;;;1999.90;999.90;;;11.30;99.90;;;;;;4997010;28;20111;-75
2022/10/26 04:49:46;;;;;;;1999.90;999.90;;;11.20;99.90;;;;;;4996937;28;20540;-75
2022/10/26 04:52:12;;;;;;;1999.90;999.90;;;11.20;99.90;;;;;;4995118;28;20118;-75
2022/10/26 04:54:37;;;;;;;1999.90;999.90;;;11.20;99.90;;;;;;4996241;28;20432;-75
2022/10/26 04:57:03;;;;;;;1999.90;999.90;;;11.20;99.90;;;;;;4996753;28;20039;-75
2022/10/26 04:59:28;;;;;;;1999.90;999.90;;;11.20;99.90;;;;;;4995223;28;20041;-75
2022/10/26 05:01:54;;;;;;;1999.90;999.90;;;11.20;99.90;;;;;;4996651;28;20034;-75
2022/10/26 05:04:19;;;;;;;1999.90;999.90;;;11.20;99.90;;;;;;4996630;28;20039;-75
2022/10/26 05:06:45;;;;;;;1999.90;999.90;;;11.20;99.90;;;;;;4995207;28;20039;-75
2022/10/26 05:09:10;;;;;;;1999.90;999.90;;;11.20;99.90;;;;;;4994922;28;20481;-75
2022/10/26 05:11:36;;;;;;;1999.90;999.90;;;11.20;99.90;;;;;;4995500;28;20023;-75
2022/10/26 05:14:02;;;;;;;1999.90;999.90;;;11.10;99.90;;;;;;4996623;28;20034;-75
2022/10/26 05:16:27;;;;;;;1999.90;999.90;;;11.10;99.90;;;;;;4996259;28;20117;-75
2022/10/26 05:18:53;;;;;;;1999.90;999.90;;;11.10;99.90;;;;;;4994980;28;20510;-75
2022/10/26 05:21:18;;;;;;;1999.90;999.90;;;11.10;99.90;;;;;;4994735;28;20042;-75
2022/10/26 05:23:52;;;;;;;1999.90;999.90;;;11.10;99.90;;;;;;4996196;28;20054;-75
2022/10/26 05:26:18;;;;;;;1999.90;999.90;;;11.10;99.90;;;;;;4995874;28;20094;-76
2022/10/26 05:28:44;;;;;;;1999.90;999.90;;;11.10;99.90;;;;;;4996349;28;20109;-76
2022/10/26 05:31:10;;;;;;;1999.90;999.90;;;11.20;99.90;;;;;;4996534;28;20062;-76
2022/10/26 05:33:36;;;;;;;1999.90;999.90;;;11.20;99.90;;;;;;4996631;28;20058;-76
2022/10/26 05:36:01;;;;;;;1999.90;999.90;;;11.20;99.90;;;;;;4997684;28;20086;-76
2022/10/26 05:38:27;;;;;;;1999.90;999.90;;;11.20;99.90;;;;;;4996241;28;20130;-76
2022/10/26 05:40:53;;;;;;;1999.90;999.90;;;11.30;99.90;;;;;;4996707;28;20389;-76
2022/10/26 05:43:21;;;;;;;1999.90;999.90;;;11.30;99.90;;;;;;4995265;28;20527;-79
2022/10/26 05:45:48;;;;;;;1999.90;999.90;;;11.40;99.90;;;;;;4994736;28;20575;-75
2022/10/26 05:48:14;;;;;;;1999.90;999.90;;;11.40;99.90;;;;;;4996217;28;20070;-76
2022/10/26 05:50:39;;;;;;;1999.90;999.90;;;11.40;99.90;;;;;;4996441;28;20465;-78
2022/10/26 05:53:05;;;;;;;1999.90;999.90;;;11.40;99.90;;;;;;4996238;28;20039;-75
2022/10/26 05:55:31;;;;;;;1999.90;999.90;;;11.50;99.90;;;;;;4994797;28;20039;-74
2022/10/26 05:57:57;;;;;;;1999.90;999.90;;;11.50;99.90;;;;;;4997655;28;20451;-75
2022/10/26 06:00:25;;;;;;;1999.90;999.90;;;11.50;99.90;;;;;;4996223;28;20042;-75
2022/10/26 06:03:07;;;;;;;1999.90;999.90;;;11.50;99.90;;;;;;4996001;28;20066;-75
2022/10/26 06:05:58;;;;;;;1999.90;999.90;;;11.50;99.90;;;;;;4995752;28;20106;-75
2022/10/26 06:08:26;;;;;;;1999.90;999.90;;;11.50;99.90;;;;;;4995923;28;20027;-75
2022/10/26 06:10:53;;;;;;;1999.90;999.90;;;11.50;99.90;;;;;;4994189;28;20035;-75
2022/10/26 06:13:19;;;;;;;1999.90;999.90;;;11.60;99.90;;;;;;4995655;28;20031;-75
2022/10/26 06:15:57;;;;;;;1999.90;999.90;;;11.60;99.90;;;;;;4995259;28;20039;-75
2022/10/26 06:18:49;;;;;;;1999.90;999.90;;;11.60;99.90;;;;;;4994561;28;20065;-75
2022/10/26 06:21:28;;;;;;;1999.90;999.90;;;11.70;99.90;;;;;;4967046;28;20066;-75
2022/10/26 06:24:29;;;;;;;1999.90;999.90;;;11.70;99.90;;;;;;4995786;28;20486;-75
2022/10/26 06:27:10;;;;;;;1999.90;999.90;;;11.70;99.90;;;;;;4995521;28;20042;-75
2022/10/26 06:29:49;;;;;;;1999.90;999.90;;;11.80;99.90;;;;;;4994171;28;20035;-75
2022/10/26 06:32:16;;;;;;;1999.90;999.90;;;11.80;99.90;;;;;;4994083;28;20038;-75
2022/10/26 06:34:45;;;;;;;1999.90;999.90;;;11.90;99.90;;;;;;4995284;28;20041;-75
2022/10/26 06:37:12;;;;;;;1999.90;999.90;;;11.90;99.90;;;;;;4995334;28;20568;-75
2022/10/26 06:39:42;;;;;;;1999.90;999.90;;;12.00;99.90;;;;;;4995324;28;20038;-75
2022/10/26 06:42:09;;;;;;;1999.90;999.90;;;12.10;99.90;;;;;;4995165;28;20035;-75
2022/10/26 06:44:35;;;;;;;1999.90;999.90;;;12.20;99.90;;;;;;4994856;28;20058;-75
2022/10/26 06:47:24;;;;;;;1999.90;999.90;;;12.30;99.90;;;;;;4995087;28;20035;-75
2022/10/26 06:50:06;;;;;;;1999.90;999.90;;;12.40;99.90;;;;;;4993895;28;20037;-75
2022/10/26 06:52:38;;;;;;;1999.90;999.90;;;12.60;99.90;;;;;;4995412;28;20059;-75
2022/10/26 06:55:05;;;;;;;1999.90;999.90;;;12.60;99.90;;;;;;4995019;28;20057;-75
2022/10/26 06:57:35;;;;;;;1999.90;999.90;;;12.70;99.90;;;;;;4995610;28;20647;-75
2022/10/26 07:00:04;;;;;;;1999.90;999.90;;;12.70;99.90;;;;;;4995265;28;20105;-75
2022/10/26 07:02:29;;;;;;;1999.90;999.90;;;12.80;99.90;;;;;;4993530;28;20505;-75
2022/10/26 07:04:55;;;;;;;1999.90;999.90;;;12.80;99.90;;;;;;4995065;28;20039;-75
2022/10/26 07:07:23;;;;;;;1999.90;999.90;;;12.80;99.90;;;;;;4995037;28;20118;-75
2022/10/26 07:09:50;;;;;;;1999.90;999.90;;;12.80;99.90;;;;;;4994949;28;20039;-75
2022/10/26 07:12:15;;;;;;;1999.90;999.90;;;12.90;99.90;;;;;;4994728;28;20166;-75
2022/10/26 07:14:41;;;;;;;1999.90;999.90;;;12.80;99.90;;;;;;4994719;28;20093;-75
2022/10/26 07:17:08;;;;;;;1999.90;999.90;;;12.90;99.90;;;;;;4995114;28;20043;-75
2022/10/26 07:19:33;;;;;;;1999.90;999.90;;;13.00;99.90;;;;;;4994351;28;20049;-75
2022/10/26 07:22:00;;;;;;;1999.90;999.90;;;13.10;99.90;;;;;;4994468;28;20031;-75
2022/10/26 07:24:26;;;;;;;1999.90;999.90;;;13.10;99.90;;;;;;4993313;28;20027;-75
2022/10/26 07:26:54;;;;;;;1999.90;999.90;;;13.20;99.90;;;;;;4994603;28;20093;-75
2022/10/26 07:29:20;;;;;;;1999.90;999.90;;;13.40;99.90;;;;;;4993321;28;20066;-75
2022/10/26 07:31:45;;;;;;;1999.90;999.90;;;13.50;99.90;;;;;;4994551;28;20027;-75
2022/10/26 07:34:11;;;;;;;1999.90;999.90;;;13.50;99.90;;;;;;4993356;28;20058;-75
2022/10/26 07:36:37;;;;;;;1999.90;999.90;;;13.50;99.90;;;;;;4993138;28;20035;-75
2022/10/26 07:39:03;;;;;;;1999.90;999.90;;;13.50;99.90;;;;;;4994680;28;20038;-75
2022/10/26 07:41:29;;;;;;;1999.90;999.90;;;13.50;99.90;;;;;;4994744;28;20041;-75
2022/10/26 07:43:54;;;;;;;1999.90;999.90;;;13.50;99.90;;;;;;4994688;28;20416;-75
2022/10/26 07:46:20;;;;;;;1999.90;999.90;;;13.60;99.90;;;;;;4994231;28;20081;-75
2022/10/26 07:48:45;;;;;;;1999.90;999.90;;;13.70;99.90;;;;;;4995671;28;20051;-75
2022/10/26 07:51:11;;;;;;;1999.90;999.90;;;13.70;99.90;;;;;;4994385;28;20042;-75
2022/10/26 07:53:37;;;;;;;1999.90;999.90;;;13.80;99.90;;;;;;4994512;28;20038;-75
2022/10/26 07:56:02;;;;;;;1999.90;999.90;;;13.90;99.90;;;;;;4994276;28;20066;-75
2022/10/26 07:58:28;;;;;;;1999.90;999.90;;;13.90;99.90;;;;;;4997237;28;20071;-75
2022/10/26 08:00:54;;;;;;;1999.90;999.90;;;14.00;99.90;;;;;;4997458;28;20031;-75
2022/10/26 08:03:20;;;;;;;1999.90;999.90;;;14.00;99.90;;;;;;4997901;28;20468;-75
2022/10/26 08:05:52;;;;;;;1999.90;999.90;;;14.10;99.90;;;;;;4996286;28;20493;-75
2022/10/26 08:08:18;;;;;;;1999.90;999.90;;;14.20;99.90;;;;;;4996282;28;20035;-75
2022/10/26 08:10:44;;;;;;;1999.90;999.90;;;14.40;99.90;;;;;;4997667;28;20042;-75
2022/10/26 08:13:10;;;;;;;1999.90;999.90;;;14.50;99.90;;;;;;4997777;28;20042;-75
2022/10/26 08:15:36;;;;;;;1999.90;999.90;;;14.70;99.90;;;;;;4997634;28;20572;-75
2022/10/26 08:18:02;;;;;;;1999.90;999.90;;;14.80;99.90;;;;;;4998804;28;20173;-76
2022/10/26 08:20:28;;;;;;;1999.90;999.90;;;14.90;99.90;;;;;;4998301;28;20023;-76
2022/10/26 08:22:57;;;;;;;1999.90;999.90;;;15.10;99.90;;;;;;4997620;28;20473;-76
2022/10/26 08:25:23;;;;;;;1999.90;999.90;;;15.30;99.90;;;;;;4995707;28;20046;-77
2022/10/26 08:27:48;;;;;;;1999.90;999.90;;;15.40;99.90;;;;;;4998153;28;20093;-80
2022/10/26 08:30:15;;;;;;;1999.90;999.90;;;15.60;99.90;;;;;;5001058;28;20050;-78
2022/10/26 08:32:43;;;;;;;1999.90;999.90;;;15.60;99.90;;;;;;5002425;28;20678;-77
2022/10/26 08:35:09;;;;;;;1999.90;999.90;;;15.70;99.90;;;;;;5001321;28;20039;-78
2022/10/26 08:37:35;;;;;;;1999.90;999.90;;;15.80;99.90;;;;;;5001759;28;20414;-78
2022/10/26 08:40:02;;;;;;;1999.90;999.90;;;16.00;99.90;;;;;;5001894;28;20047;-79
2022/10/26 08:42:35;;;;;;;1999.90;999.90;;;16.00;99.90;;;;;;5003205;28;20092;-81
2022/10/26 08:45:09;;;;;;;1999.90;999.90;;;16.00;99.90;;;;;;5001432;28;20134;-75
2022/10/26 08:47:48;;;;;;;1999.90;999.90;;;16.00;99.90;;;;;;4995658;28;20090;-74
2022/10/26 08:50:23;;;;;;;1999.90;999.90;;;15.90;99.90;;;;;;4996691;28;20051;-74
2022/10/26 08:53:20;;;;;;;1999.90;999.90;;;15.90;99.90;;;;;;4997647;28;20102;-74
2022/10/26 08:56:04;;;;;;;1999.90;999.90;;;16.10;99.90;;;;;;4996838;28;20487;-74
2022/10/26 08:58:37;;;;;;;1999.90;999.90;;;16.20;99.90;;;;;;4996772;28;20053;-74
2022/10/26 09:01:04;;;;;;;1999.90;999.90;;;16.50;99.90;;;;;;4996045;28;20126;-74
2022/10/26 09:03:30;;;;;;;1999.90;999.90;;;16.40;99.90;;;;;;4996698;28;20069;-74
2022/10/26 09:06:01;;;;;;;1999.90;999.90;;;16.50;99.90;;;;;;4994670;28;20110;-74
2022/10/26 09:08:51;;;;;;;1999.90;999.90;;;16.40;99.90;;;;;;4995688;28;20663;-74
2022/10/26 09:11:30;;;;;;;1999.90;999.90;;;16.60;99.90;;;;;;4995800;28;20039;-74
2022/10/26 09:14:10;;;;;;;1999.90;999.90;;;16.70;99.90;;;;;;4996338;28;20045;-74
2022/10/26 09:16:44;;;;;;;1999.90;999.90;;;16.70;99.90;;;;;;4996012;28;20121;-74
2022/10/26 09:19:27;;;;;;;1999.90;999.90;;;16.60;99.90;;;;;;4995998;28;20049;-74
2022/10/26 09:22:07;;;;;;;1999.90;999.90;;;16.60;99.90;;;;;;4996076;28;20035;-74
2022/10/26 09:24:38;;;;;;;1999.90;999.90;;;16.70;99.90;;;;;;4996751;28;20035;-78
2022/10/26 09:27:22;;;;;;;1999.90;999.90;;;16.80;99.90;;;;;;4999255;28;20089;-75
2022/10/26 09:29:50;;;;;;;1999.90;999.90;;;17.00;99.90;;;;;;4996093;28;20065;-74
2022/10/26 09:32:33;;;;;;;1999.90;999.90;;;17.10;99.90;;;;;;4995539;28;20038;-74
2022/10/26 09:35:03;;;;;;;1999.90;999.90;;;17.20;99.90;;;;;;4995708;28;20034;-74
2022/10/26 09:37:37;;;;;;;1999.90;999.90;;;17.40;99.90;;;;;;4995469;28;20043;-74
2022/10/26 09:40:13;;;;;;;1999.90;999.90;;;17.40;99.90;;;;;;4996003;28;20045;-74
2022/10/26 09:42:53;;;;;;;1999.90;999.90;;;17.50;99.90;;;;;;4994433;28;20041;-75
2022/10/26 09:45:19;;;;;;;1999.90;999.90;;;17.60;99.90;;;;;;4995594;28;20038;-74
2022/10/26 09:47:51;;;;;;;1999.90;999.90;;;17.70;99.90;;;;;;4995721;28;20085;-74
2022/10/26 09:50:30;;;;;;;1999.90;999.90;;;17.80;99.90;;;;;;4995563;28;20066;-75
2022/10/26 09:52:55;;;;;;;1999.90;999.90;;;17.70;99.90;;;;;;4995948;28;20027;-74
2022/10/26 09:55:21;;;;;;;1999.90;999.90;;;17.50;99.90;;;;;;4995401;28;20043;-74
2022/10/26 09:57:50;;;;;;;1999.90;999.90;;;17.40;99.90;;;;;;4994225;28;20035;-74
2022/10/26 10:00:19;;;;;;;1999.90;999.90;;;17.30;99.90;;;;;;4995779;28;20051;-75
2022/10/26 10:02:52;;;;;;;1999.90;999.90;;;17.30;99.90;;;;;;4995639;28;20077;-75
2022/10/26 10:05:21;;;;;;;1999.90;999.90;;;17.40;99.90;;;;;;4995387;28;20066;-78
2022/10/26 10:07:46;;;;;;;1999.90;999.90;;;17.30;99.90;;;;;;4995206;28;20156;-75
2022/10/26 10:10:18;;;;;;;1999.90;999.90;;;17.30;99.90;;;;;;4998888;28;20121;-76
2022/10/26 10:12:46;;;;;;;1999.90;999.90;;;17.30;99.90;;;;;;5000157;28;20035;-76
2022/10/26 10:15:25;;;;;;;1999.90;999.90;;;17.30;99.90;;;;;;4998882;28;20031;-75
2022/10/26 10:17:54;;;;;;;1999.90;999.90;;;17.40;99.90;;;;;;4995910;28;20045;-74
2022/10/26 10:20:22;;;;;;;1999.90;999.90;;;17.40;99.90;;;;;;4993512;28;20053;-76
2022/10/26 10:23:02;;;;;;;1999.90;999.90;;;17.50;99.90;;;;;;4996014;28;20512;-75
2022/10/26 10:25:41;;;;;;;1999.90;999.90;;;17.60;99.90;;;;;;4994334;28;20038;-74
2022/10/26 10:28:21;;;;;;;1999.90;999.90;;;17.70;99.90;;;;;;4994473;28;20042;-75
2022/10/26 10:30:56;;;;;;;1999.90;999.90;;;17.80;99.90;;;;;;4995498;28;20042;-75
2022/10/26 10:33:21;;;;;;;1999.90;999.90;;;17.80;99.90;;;;;;4995487;28;20034;-75
2022/10/26 10:35:50;;;;;;;1999.90;999.90;;;17.90;99.90;;;;;;4995416;28;20043;-76
2022/10/26 10:38:19;;;;;;;1999.90;999.90;;;17.90;99.90;;;;;;4995342;28;20039;-76
2022/10/26 10:40:59;;;;;;;1999.90;999.90;;;18.00;99.90;;;;;;4995370;28;20038;-75
2022/10/26 10:43:25;;;;;;;1999.90;999.90;;;18.00;99.90;;;;;;4995704;28;20041;-78
2022/10/26 10:45:54;;;;;;;1999.90;999.90;;;18.10;99.90;;;;;;4995101;28;20030;-75
2022/10/26 10:48:23;;;;;;;1999.90;999.90;;;18.20;99.90;;;;;;4995183;28;20476;-75
2022/10/26 10:51:00;;;;;;;1999.90;999.90;;;18.20;99.90;;;;;;4995052;28;20035;-75
2022/10/26 10:53:35;;;;;;;1999.90;999.90;;;18.10;99.90;;;;;;4995217;28;20043;-75
2022/10/26 10:56:22;;;;;;;1999.90;999.90;;;18.20;99.90;;;;;;4995362;28;20481;-75
2022/10/26 10:59:00;;;;;;;1999.90;999.90;;;18.20;99.90;;;;;;4994515;28;20444;-78
2022/10/26 11:01:34;;;;;;;1999.90;999.90;;;18.30;99.90;;;;;;4995140;28;20093;-81
2022/10/26 11:04:19;;;;;;;1999.90;999.90;;;18.40;99.90;;;;;;4995407;28;20037;-75
2022/10/26 11:06:47;;;;;;;1999.90;999.90;;;18.40;99.90;;;;;;4993643;28;20035;-75
2022/10/26 11:09:17;;;;;;;1999.90;999.90;;;18.50;99.90;;;;;;4995262;28;20522;-75
2022/10/26 11:11:52;;;;;;;1999.90;999.90;;;18.60;99.90;;;;;;4994844;28;20046;-75
2022/10/26 11:14:34;;;;;;;1999.90;999.90;;;18.60;99.90;;;;;;4993568;28;20034;-75
2022/10/26 11:17:32;;;;;;;1999.90;999.90;;;18.70;99.90;;;;;;4995093;28;20109;-75
2022/10/26 11:20:12;;;;;;;1999.90;999.90;;;18.80;99.90;;;;;;4993526;28;20074;-75
2022/10/26 11:22:52;;;;;;;1999.90;999.90;;;18.90;99.90;;;;;;4993652;28;20031;-80
2022/10/26 11:25:24;;;;;;;1999.90;999.90;;;19.00;99.90;;;;;;4993580;28;20058;-75
2022/10/26 11:28:00;;;;;;;1999.90;999.90;;;19.00;99.90;;;;;;4994739;28;20031;-76
2022/10/26 11:30:28;;;;;;;1999.90;999.90;;;19.00;99.90;;;;;;4994894;28;20049;-75
2022/10/26 11:32:55;;;;;;;1999.90;999.90;;;19.10;99.90;;;;;;4998374;28;20034;-75
2022/10/26 11:35:25;;;;;;;1999.90;999.90;;;19.10;99.90;;;;;;4998256;28;20034;-74
2022/10/26 11:38:13;;;;;;;1999.90;999.90;;;19.30;99.90;;;;;;4998231;28;20035;-75
2022/10/26 11:40:55;;;;;;;1999.90;999.90;;;19.50;99.90;;;;;;4998027;28;20520;-75
2022/10/26 11:43:23;;;;;;;1999.90;999.90;;;19.70;99.90;;;;;;4998305;28;20087;-75
2022/10/26 11:46:07;;;;;;;1999.90;999.90;;;19.90;99.90;;;;;;4997831;28;20030;-76
2022/10/26 11:49:02;;;;;;;1999.90;999.90;;;19.90;99.90;;;;;;4997720;28;20066;-75
2022/10/26 11:52:04;;;;;;;1999.90;999.90;;;20.00;99.90;;;;;;4973496;28;20126;-75
2022/10/26 11:54:34;;;;;;;1999.90;999.90;;;20.20;99.90;;;;;;4996318;28;20058;-75
2022/10/26 11:57:02;;;;;;;1999.90;999.90;;;20.30;99.90;;;;;;4996846;28;20046;-75
2022/10/26 11:59:31;;;;;;;1999.90;999.90;;;20.30;99.90;;;;;;4997231;28;20077;-75
2022/10/26 12:02:04;;;;;;;1999.90;999.90;;;20.20;99.90;;;;;;4996891;28;20054;-78
2022/10/26 12:04:32;;;;;;;1999.90;999.90;;;20.20;99.90;;;;;;4997558;28;20035;-75
2022/10/26 12:06:59;;;;;;;1999.90;999.90;;;20.20;99.90;;;;;;4997508;28;20027;-75
2022/10/26 12:09:35;;;;;;;1999.90;999.90;;;20.30;99.90;;;;;;4996606;28;20054;-75
2022/10/26 12:12:10;;;;;;;1999.90;999.90;;;20.30;99.90;;;;;;4995953;28;20532;-75
2022/10/26 12:14:45;;;;;;;1999.90;999.90;;;20.60;99.90;;;;;;4997863;28;20587;-75
2022/10/26 12:17:17;;;;;;;1999.90;999.90;;;20.90;99.90;;;;;;4998143;28;20030;-75
2022/10/26 12:20:24;;;;;;;1999.90;999.90;;;21.10;99.90;;;;;;4997408;28;20039;-75
2022/10/26 12:22:50;;;;;;;1999.90;999.90;;;21.50;99.90;;;;;;4997067;28;20509;-75
2022/10/26 12:25:15;;;;;;;1999.90;999.90;;;21.80;99.90;;;;;;4997380;28;20038;-75
2022/10/26 12:27:41;;;;;;;1999.90;999.90;;;21.80;99.90;;;;;;4997599;28;20058;-75
2022/10/26 12:30:18;;;;;;;1999.90;999.90;;;21.90;99.90;;;;;;4998248;28;20047;-75
2022/10/26 12:32:43;;;;;;;1999.90;999.90;;;22.00;99.90;;;;;;4997508;28;20035;-75
2022/10/26 12:35:32;;;;;;;1999.90;999.90;;;22.10;99.90;;;;;;4997162;28;20038;-75
2022/10/26 12:37:59;;;;;;;1999.90;999.90;;;22.00;99.90;;;;;;4997753;28;20445;-75
2022/10/26 12:40:39;;;;;;;1999.90;999.90;;;22.10;99.90;;;;;;4995655;28;20070;-75
2022/10/26 12:43:13;;;;;;;1999.90;999.90;;;22.20;99.90;;;;;;4996439;28;20532;-75
2022/10/26 12:46:06;;;;;;;1999.90;999.90;;;22.40;99.90;;;;;;4996785;28;20058;-75
2022/10/26 12:48:43;;;;;;;1999.90;999.90;;;22.30;99.90;;;;;;4996851;28;20118;-75
2022/10/26 12:51:17;;;;;;;1999.90;999.90;;;22.10;99.90;;;;;;4996688;28;20038;-75
2022/10/26 12:53:43;;;;;;;1999.90;999.90;;;22.00;99.90;;;;;;4996855;28;20098;-75
2022/10/26 12:56:17;;;;;;;1999.90;999.90;;;21.80;99.90;;;;;;4995152;28;20030;-75
2022/10/26 12:59:16;;;;;;;1999.90;999.90;;;21.60;99.90;;;;;;4996855;28;20737;-76
2022/10/26 13:01:49;;;;;;;1999.90;999.90;;;21.70;99.90;;;;;;4996167;28;20030;-76
2022/10/26 13:04:41;;;;;;;1999.90;999.90;;;21.60;99.90;;;;;;4996580;28;20047;-76
2022/10/26 13:07:32;;;;;;;1999.90;999.90;;;21.60;99.90;;;;;;4995258;28;20550;-76
2022/10/26 13:10:05;;;;;;;1999.90;999.90;;;21.80;99.90;;;;;;4996750;28;20074;-76
2022/10/26 13:12:58;;;;;;;1999.90;999.90;;;21.70;99.90;;;;;;4996174;28;20062;-76
2022/10/26 13:15:37;;;;;;;1999.90;999.90;;;21.80;99.90;;;;;;4991489;28;20509;-76
2022/10/26 13:18:11;;;;;;;1999.90;999.90;;;21.70;99.90;;;;;;4995152;28;20129;-76
2022/10/26 13:20:59;;;;;;;1999.90;999.90;;;21.80;99.90;;;;;;4996659;28;20038;-76
2022/10/26 13:23:28;;;;;;;1999.90;999.90;;;21.80;99.90;;;;;;4995135;28;20038;-76
2022/10/26 13:26:11;;;;;;;1999.90;999.90;;;21.80;99.90;;;;;;4996079;28;20097;-76
2022/10/26 13:28:36;;;;;;;1999.90;999.90;;;21.80;99.90;;;;;;4996650;28;20058;-76
2022/10/26 13:31:04;;;;;;;1999.90;999.90;;;21.90;99.90;;;;;;4996567;28;20123;-76
2022/10/26 13:33:38;;;;;;;1999.90;999.90;;;21.90;99.90;;;;;;4996529;28;20035;-76
2022/10/26 13:36:49;;;;;;;1999.90;999.90;;;21.80;99.90;;;;;;4994861;28;20130;-76
2022/10/26 13:39:19;;;;;;;1999.90;999.90;;;21.80;99.90;;;;;;4980966;28;20790;-76
2022/10/26 13:41:48;;;;;;;1999.90;999.90;;;21.60;99.90;;;;;;4995685;28;20035;-76
2022/10/26 13:44:24;;;;;;;1999.90;999.90;;;21.40;99.90;;;;;;4995987;28;20030;-76
2022/10/26 13:46:58;;;;;;;1999.90;999.90;;;21.30;99.90;;;;;;4997075;28;20039;-77
2022/10/26 13:49:32;;;;;;;1999.90;999.90;;;21.20;99.90;;;;;;4996646;28;20039;-75
2022/10/26 13:52:01;;;;;;;1999.90;999.90;;;21.20;99.90;;;;;;4995881;28;20472;-75
2022/10/26 13:54:54;;;;;;;1999.90;999.90;;;21.20;99.90;;;;;;4995801;28;20457;-76
2022/10/26 13:57:42;;;;;;;1999.90;999.90;;;21.20;99.90;;;;;;4996131;28;20031;-75
2022/10/26 14:00:22;;;;;;;1999.90;999.90;;;21.30;99.90;;;;;;4996127;28;20849;-75
2022/10/26 14:02:48;;;;;;;1999.90;999.90;;;21.20;99.90;;;;;;4996030;28;20042;-75
2022/10/26 14:05:16;;;;;;;1999.90;999.90;;;21.20;99.90;;;;;;4995810;28;20393;-75
2022/10/26 14:07:56;;;;;;;1999.90;999.90;;;21.20;99.90;;;;;;4994351;28;20062;-75
2022/10/26 14:10:27;;;;;;;1999.90;999.90;;;21.30;99.90;;;;;;4994101;28;20042;-75
2022/10/26 14:12:53;;;;;;;1999.90;999.90;;;21.30;99.90;;;;;;4994316;28;20486;-75
2022/10/26 14:15:26;;;;;;;1999.90;999.90;;;21.20;99.90;;;;;;4995486;28;20121;-75
2022/10/26 14:17:54;;;;;;;1999.90;999.90;;;21.10;99.90;;;;;;4994297;28;20037;-75
2022/10/26 14:20:21;;;;;;;1999.90;999.90;;;21.10;99.90;;;;;;4993767;28;20094;-75
2022/10/26 14:22:47;;;;;;;1999.90;999.90;;;21.20;99.90;;;;;;4993958;28;20085;-75
2022/10/26 14:25:31;;;;;;;1999.90;999.90;;;21.30;99.90;;;;;;4993964;28;20117;-75
2022/10/26 14:27:57;;;;;;;1999.90;999.90;;;21.30;99.90;;;;;;4995722;28;20066;-75
2022/10/26 14:30:28;;;;;;;1999.90;999.90;;;21.30;99.90;;;;;;4995303;28;20121;-75
2022/10/26 14:32:55;;;;;;;1999.90;999.90;;;21.30;99.90;;;;;;4996142;28;20057;-80
2022/10/26 14:35:28;;;;;;;1999.90;999.90;;;21.20;99.90;;;;;;4993854;28;20039;-76
2022/10/26 14:37:56;;;;;;;1999.90;999.90;;;21.10;99.90;;;;;;4995780;28;20042;-76
2022/10/26 14:40:26;;;;;;;1999.90;999.90;;;20.90;99.90;;;;;;4995954;28;20035;-81
2022/10/26 14:42:55;;;;;;;1999.90;999.90;;;20.90;99.90;;;;;;4996326;28;20031;-81
2022/10/26 14:45:23;;;;;;;1999.90;999.90;;;20.90;99.90;;;;;;4999553;28;20039;-81
2022/10/26 14:47:49;;;;;;;1999.90;999.90;;;20.80;99.90;;;;;;4999025;28;20042;-84
2022/10/26 14:50:20;;;;;;;1999.90;999.90;;;20.70;99.90;;;;;;4999937;28;20045;-81
2022/10/26 14:52:55;;;;;;;1999.90;999.90;;;20.70;99.90;;;;;;4999802;28;20038;-79
2022/10/26 14:55:22;;;;;;;1999.90;999.90;;;20.70;99.90;;;;;;4997421;28;20039;-79
2022/10/26 14:57:51;;;;;;;1999.90;999.90;;;20.60;99.90;;;;;;4997650;28;20869;-82
2022/10/26 15:00:22;;;;;;;1999.90;999.90;;;20.60;99.90;;;;;;4994575;28;20100;-75
2022/10/26 15:02:51;;;;;;;1999.90;999.90;;;20.50;99.90;;;;;;4993237;28;20042;-76
2022/10/26 15:05:28;;;;;;;1999.90;999.90;;;20.50;99.90;;;;;;4992912;28;20035;-76
2022/10/26 15:07:55;;;;;;;1999.90;999.90;;;20.40;99.90;;;;;;4992865;28;20050;-76
2022/10/26 15:10:36;;;;;;;1999.90;999.90;;;20.40;99.90;;;;;;4992262;28;20038;-76
2022/10/26 15:13:26;;;;;;;1999.90;999.90;;;20.30;99.90;;;;;;4993517;28;20082;-76
2022/10/26 15:15:53;;;;;;;1999.90;999.90;;;20.30;99.90;;;;;;4992754;28;20038;-76
2022/10/26 15:18:25;;;;;;;1999.90;999.90;;;20.30;99.90;;;;;;4995083;28;20054;-76
2022/10/26 15:20:52;;;;;;;1999.90;999.90;;;20.10;99.90;;;;;;4993908;28;20045;-76
2022/10/26 15:23:22;;;;;;;1999.90;999.90;;;20.10;99.90;;;;;;4995780;28;20027;-76
2022/10/26 15:26:09;;;;;;;1999.90;999.90;;;19.90;99.90;;;;;;4994891;28;20039;-76
2022/10/26 15:28:35;;;;;;;1999.90;999.90;;;19.80;99.90;;;;;;4994532;28;20094;-76
2022/10/26 15:31:27;;;;;;;1999.90;999.90;;;19.60;99.90;;;;;;4994487;28;20082;-76
2022/10/26 15:33:53;;;;;;;1999.90;999.90;;;19.50;99.90;;;;;;4994952;28;20023;-76
2022/10/26 15:36:20;;;;;;;1999.90;999.90;;;19.20;99.90;;;;;;4992939;28;20485;-77
2022/10/26 15:38:47;;;;;;;1999.90;999.90;;;19.00;99.90;;;;;;4994445;28;20047;-76
2022/10/26 15:41:51;;;;;;;1999.90;999.90;;;18.80;99.90;;;;;;4994893;28;20031;-76
2022/10/26 15:44:20;;;;;;;1999.90;999.90;;;18.50;99.90;;;;;;4977375;28;20130;-76
2022/10/26 15:46:46;;;;;;;1999.90;999.90;;;18.20;99.90;;;;;;4994063;28;20067;-76
2022/10/26 15:49:18;;;;;;;1999.90;999.90;;;18.00;99.90;;;;;;4994677;28;20070;-76
2022/10/26 15:51:46;;;;;;;1999.90;999.90;;;17.70;99.90;;;;;;4993024;28;20035;-76
2022/10/26 15:54:12;;;;;;;1999.90;999.90;;;17.60;99.90;;;;;;4997556;28;20473;-80
2022/10/26 15:56:38;;;;;;;1999.90;999.90;;;17.30;99.90;;;;;;4994746;28;20043;-81
2022/10/26 15:59:15;;;;;;;1999.90;999.90;;;17.20;99.90;;;;;;4995271;28;20050;-77
2022/10/26 16:01:40;;;;;;;1999.90;999.90;;;17.10;99.90;;;;;;4995604;28;20089;-75
2022/10/26 16:04:08;;;;;;;1999.90;999.90;;;17.00;99.90;;;;;;4993726;28;20437;-75
2022/10/26 16:06:34;;;;;;;1999.90;999.90;;;16.80;99.90;;;;;;4997069;28;20070;-74
2022/10/26 16:09:02;;;;;;;1999.90;999.90;;;16.60;99.90;;;;;;4999312;28;20404;-73
2022/10/26 16:11:28;;;;;;;1999.90;999.90;;;16.40;99.90;;;;;;4993508;28;20489;-74
2022/10/26 16:13:54;;;;;;;1999.90;999.90;;;16.30;99.90;;;;;;4988359;28;20126;-73
2022/10/26 16:16:20;;;;;;;1999.90;999.90;;;16.10;99.90;;;;;;4989424;28;20049;-75
2022/10/26 16:18:49;;;;;;;1999.90;999.90;;;15.90;99.90;;;;;;4986825;28;20035;-76
2022/10/26 16:21:17;;;;;;;1999.90;999.90;;;15.80;99.90;;;;;;4997784;23;20043;-75